Terminal Aerodrome Forecast
Issued by NWS Sterling, VA

Current Version | Previous Version | Text Only | Print | Product List | Glossary Off
Versions: 1 2 3 4 5 6 7 8 9 10 11 12 13 14 15 16 17 18 19 20 21 22 23

000
FTUS41 KLWX 192000 AAA
TAFIAD
TAF AMD
KIAD 192058Z 1921/2024 11006KT P6SM SCT025 BKN050
     FM200800 00000KT P6SM BKN050 BKN130
     FM201600 15006KT P6SM BKN050
     FM202200 17006KT P6SM -SHRA VCTS OVC050CB=

USA.gov is the U.S. government's official web portal to all federal, state and local government web resources and services.